| time (UTC) | temp F | wind direction | speed knots | gust knots | rain 1hr in | rain 24hr in | rain mn in | humidity % | barometer mb |
| 20260508164540 | 68 | 328 | 1.7 | 8.7 | 0.00 | 0.15 | 0.00 | 43 | 1017.5 |
| 20260508163040 | 70 | 192 | 1.7 | 6.1 | 0.00 | 0.15 | 0.00 | 40 | 1017.7 |
| 20260508161546 | 72 | 0 | 0.9 | 4.3 | 0.00 | 0.15 | 0.00 | 40 | 1017.9 |
| 20260508160038 | 69 | 173 | 0.9 | 5.2 | 0.00 | 0.15 | 0.00 | 41 | 1018.2 |
| 20260508154538 | 69 | 306 | 0.9 | 3.5 | 0.00 | 0.15 | 0.00 | 40 | 1018.5 |
| 20260508153047 | 67 | 157 | 2.6 | 5.2 | 0.00 | 0.15 | 0.00 | 47 | 1018.4 |
| 20260508151539 | 66 | 225 | 3.5 | 7.8 | 0.00 | 0.15 | 0.00 | 48 | 1018.4 |
| 20260508150040 | 63 | 58 | 1.7 | 7.0 | 0.00 | 0.15 | 0.00 | 52 | 1018.6 |
| 20260508144555 | 66 | 215 | 1.7 | 7.0 | 0.00 | 0.15 | 0.00 | 49 | 1018.7 |
| 20260508143037 | 63 | 133 | 1.7 | 5.2 | 0.00 | 0.15 | 0.00 | 54 | 1018.7 |
| 20260508141551 | 62 | 192 | 2.6 | 5.2 | 0.00 | 0.15 | 0.00 | 53 | 1018.7 |
| 20260508140046 | 60 | 0 | 1.7 | 5.2 | 0.00 | 0.15 | 0.00 | 57 | 1018.9 |
| 20260508134542 | 60 | 191 | 0.9 | 3.5 | 0.00 | 0.16 | 0.00 | 58 | 1018.7 |
| 20260508133102 | 59 | 150 | 0.9 | 3.5 | 0.00 | 0.16 | 0.00 | 63 | 1018.8 |
| 20260508131534 | 57 | 57 | 0.9 | 3.5 | 0.00 | 0.16 | 0.00 | 70 | 1018.7 |
| 20260508130044 | 55 | 302 | 1.7 | 2.6 | 0.00 | 0.16 | 0.00 | 77 | 1018.5 |
| 20260508124539 | 52 | 282 | 0.0 | 1.7 | 0.00 | 0.23 | 0.00 | 92 | 1018.5 |
| 20260508123043 | 50 | 0 | 0.0 | 1.7 | 0.00 | 0.23 | 0.00 | 95 | 1018.4 |
| 20260508121537 | 48 | 279 | 0.0 | 1.7 | 0.00 | 0.23 | 0.00 | 95 | 1018.4 |
| 20260508120033 | 46 | 276 | 0.0 | 1.7 | 0.00 | 0.23 | 0.00 | 95 | 1018.1 |
| 20260508114538 | 45 | 279 | 0.0 | 1.7 | 0.00 | 0.33 | 0.00 | 94 | 1018.0 |
| 20260508113053 | 45 | 0 | 0.0 | 1.7 | 0.00 | 0.33 | 0.00 | 95 | 1017.8 |
| 20260508111535 | 44 | 0 | 0.0 | 0.9 | 0.00 | 0.33 | 0.00 | 94 | 1017.4 |
| 20260508110047 | 43 | 0 | 0.0 | 1.7 | 0.00 | 0.33 | 0.00 | 94 | 1017.2 |
| 20260508104539 | 43 | 284 | 0.9 | 1.7 | 0.00 | 0.33 | 0.00 | 94 | 1016.8 |
| 20260508103044 | 43 | 285 | 0.0 | 0.9 | 0.00 | 0.33 | 0.00 | 93 | 1016.3 |
| 20260508101535 | 44 | 285 | 0.0 | 2.6 | 0.00 | 0.33 | 0.00 | 93 | 1016.3 |
| 20260508100041 | 44 | 9 | 0.0 | 1.7 | 0.00 | 0.33 | 0.00 | 93 | 1016.1 |
| 20260508094539 | 44 | 9 | 0.9 | 1.7 | 0.00 | 0.33 | 0.00 | 93 | 1016.1 |
| 20260508093040 | 44 | 9 | 0.0 | 1.7 | 0.00 | 0.33 | 0.00 | 93 | 1016.0 |
| 20260508091552 | 44 | 9 | 0.9 | 1.7 | 0.00 | 0.33 | 0.00 | 93 | 1016.1 |
| 20260508090059 | 44 | 9 | 0.0 | 1.7 | 0.00 | 0.33 | 0.00 | 93 | 1016.0 |
| 20260508084539 | 45 | 0 | 0.0 | 1.7 | 0.00 | 0.35 | 0.00 | 92 | 1015.7 |
| 20260508083041 | 45 | 5 | 1.7 | 7.0 | 0.00 | 0.35 | 0.00 | 92 | 1015.8 |
| 20260508081544 | 45 | 188 | 0.9 | 3.5 | 0.00 | 0.35 | 0.00 | 92 | 1015.7 |
| 20260508080042 | 46 | 173 | 0.0 | 2.6 | 0.00 | 0.35 | 0.00 | 92 | 1015.7 |
| 20260508074543 | 46 | 132 | 0.0 | 1.7 | 0.00 | 0.35 | 0.00 | 91 | 1015.4 |
| 20260508073039 | 46 | 97 | 0.0 | 3.5 | 0.00 | 0.35 | 0.00 | 91 | 1015.5 |
| 20260508071546 | 47 | 0 | 0.0 | 1.7 | 0.00 | 0.35 | 0.00 | 91 | 1015.5 |
| 20260508070046 | 47 | 9 | 0.0 | 4.3 | 0.00 | 0.35 | 0.00 | 91 | 1015.2 |
| 20260508064539 | 47 | 245 | 0.9 | 2.6 | 0.00 | 0.36 | 0.00 | 90 | 1015.2 |
| 20260508063035 | 48 | 238 | 0.9 | 2.6 | 0.00 | 0.36 | 0.00 | 89 | 1015.1 |
| 20260508061550 | 48 | 238 | 0.9 | 1.7 | 0.00 | 0.36 | 0.00 | 88 | 1015.1 |
| 20260508060045 | 49 | 0 | 0.0 | 1.7 | 0.00 | 0.36 | 0.00 | 87 | 1015.2 |
| 20260508054539 | 49 | 0 | 0.9 | 1.7 | 0.00 | 0.38 | 0.00 | 87 | 1015.2 |
| 20260508053101 | 50 | 238 | 0.9 | 1.7 | 0.00 | 0.38 | 0.00 | 86 | 1015.1 |
| 20260508051541 | 50 | 238 | 0.0 | 1.7 | 0.00 | 0.38 | 0.00 | 86 | 1015.0 |
| 20260508050035 | 50 | 0 | 0.0 | 1.7 | 0.00 | 0.38 | 0.00 | 85 | 1014.9 |
| 20260508044543 | 50 | 0 | 0.0 | 1.7 | 0.00 | 0.41 | 0.00 | 85 | 1014.6 |
| 20260508043038 | 51 | 238 | 0.0 | 1.7 | 0.00 | 0.41 | 0.00 | 85 | 1014.6 |
| 20260508041604 | 51 | 236 | 0.0 | 1.7 | 0.00 | 0.41 | 0.00 | 85 | 1014.6 |
| 20260508040042 | 51 | 0 | 0.9 | 2.6 | 0.00 | 0.41 | 0.00 | 84 | 1014.6 |
| 20260508034540 | 52 | 257 | 0.9 | 3.5 | 0.00 | 0.41 | 0.41 | 82 | 1014.5 |
| 20260508033039 | 52 | 232 | 0.0 | 1.7 | 0.00 | 0.41 | 0.41 | 81 | 1014.4 |
| 20260508031539 | 53 | 229 | 0.0 | 2.6 | 0.00 | 0.41 | 0.41 | 80 | 1014.4 |
| 20260508030037 | 53 | 229 | 0.9 | 2.6 | 0.00 | 0.41 | 0.41 | 76 | 1014.5 |
| 20260508024550 | 54 | 228 | 0.9 | 2.6 | 0.00 | 0.45 | 0.41 | 77 | 1014.3 |
| 20260508023039 | 55 | 244 | 0.9 | 2.6 | 0.00 | 0.45 | 0.41 | 75 | 1014.0 |
| 20260508021540 | 55 | 239 | 0.9 | 2.6 | 0.00 | 0.45 | 0.41 | 71 | 1014.0 |
| 20260508020042 | 55 | 224 | 1.7 | 4.3 | 0.00 | 0.45 | 0.41 | 72 | 1013.6 |
| 20260508014535 | 56 | 28 | 0.0 | 4.3 | 0.00 | 0.52 | 0.41 | 70 | 1013.3 |
| 20260508013048 | 57 | 34 | 0.0 | 4.3 | 0.00 | 0.52 | 0.41 | 69 | 1013.1 |
| 20260508011550 | 58 | 346 | 0.9 | 5.2 | 0.00 | 0.52 | 0.41 | 66 | 1013.0 |
| 20260508010039 | 58 | 19 | 3.5 | 9.6 | 0.00 | 0.52 | 0.41 | 65 | 1012.5 |
| 20260508004542 | 58 | 355 | 3.5 | 9.6 | 0.00 | 0.60 | 0.41 | 66 | 1012.3 |
| 20260508003038 | 59 | 22 | 7.0 | 14.8 | 0.00 | 0.60 | 0.41 | 66 | 1011.9 |
| 20260508001549 | 60 | 348 | 4.3 | 9.6 | 0.00 | 0.60 | 0.41 | 68 | 1011.7 |
| 20260508000044 | 61 | 13 | 2.6 | 10.4 | 0.00 | 0.60 | 0.41 | 67 | 1011.5 |
| 20260507234539 | 62 | 340 | 3.5 | 14.8 | 0.00 | 0.61 | 0.41 | 67 | 1011.7 |
| 20260507233054 | 64 | 315 | 3.5 | 11.3 | 0.00 | 0.61 | 0.41 | 66 | 1011.6 |
| 20260507231538 | 65 | 28 | 6.1 | 13.0 | 0.00 | 0.61 | 0.41 | 66 | 1011.5 |
| 20260507230034 | 66 | 350 | 4.3 | 8.7 | 0.00 | 0.61 | 0.41 | 71 | 1011.1 |
| 20260507224548 | 68 | 331 | 0.0 | 3.5 | 0.00 | 0.62 | 0.41 | 79 | 1010.9 |
| 20260507223039 | 69 | 24 | 2.6 | 5.2 | 0.00 | 0.62 | 0.41 | 75 | 1010.6 |
| 20260507221539 | 71 | 52 | 1.7 | 8.7 | 0.00 | 0.62 | 0.41 | 72 | 1010.1 |
| 20260507220038 | 73 | 68 | 4.3 | 10.4 | 0.00 | 0.62 | 0.41 | 61 | 1009.8 |
| 20260507214540 | 74 | 327 | 4.3 | 12.2 | 0.00 | 0.62 | 0.41 | 58 | 1009.4 |
| 20260507213059 | 75 | 355 | 3.5 | 11.3 | 0.00 | 0.62 | 0.41 | 60 | 1009.1 |
| 20260507211539 | 77 | 5 | 3.5 | 9.6 | 0.00 | 0.62 | 0.41 | 59 | 1008.8 |
| 20260507210046 | 77 | 273 | 3.5 | 11.3 | 0.00 | 0.62 | 0.41 | 60 | 1008.5 |
| 20260507204534 | 78 | 355 | 1.7 | 8.7 | 0.00 | 0.62 | 0.41 | 62 | 1008.6 |
| 20260507203047 | 78 | 10 | 1.7 | 7.8 | 0.00 | 0.62 | 0.41 | 63 | 1008.2 |
| 20260507201546 | 77 | 34 | 0.9 | 7.8 | 0.00 | 0.62 | 0.41 | 69 | 1008.3 |
| 20260507200039 | 77 | 200 | 2.6 | 6.1 | 0.00 | 0.62 | 0.41 | 74 | 1008.1 |
| 20260507194609 | 75 | 205 | 2.6 | 7.0 | 0.01 | 0.62 | 0.41 | 78 | 1008.0 |
| 20260507193046 | 72 | 222 | 4.3 | 10.4 | 0.15 | 0.62 | 0.41 | 81 | 1008.5 |
| 20260507191547 | 70 | 255 | 5.2 | 8.7 | 0.15 | 0.62 | 0.41 | 86 | 1008.7 |
| 20260507190050 | 69 | 200 | 5.2 | 7.8 | 0.15 | 0.62 | 0.41 | 87 | 1008.8 |
| 20260507184539 | 73 | 221 | 0.9 | 4.3 | 0.14 | 0.61 | 0.40 | 81 | 1009.1 |
| 20260507183044 | 75 | 200 | 3.5 | 9.6 | 0.00 | 0.47 | 0.26 | 70 | 1008.8 |
| 20260507181535 | 76 | 214 | 5.2 | 9.6 | 0.00 | 0.47 | 0.26 | 69 | 1009.0 |
| 20260507180038 | 76 | 190 | 4.3 | 7.8 | 0.00 | 0.47 | 0.26 | 70 | 1008.8 |
| 20260507174552 | 74 | 209 | 4.3 | 9.6 | 0.00 | 0.47 | 0.26 | 73 | 1009.0 |
| 20260507173054 | 74 | 202 | 6.1 | 11.3 | 0.00 | 0.47 | 0.26 | 75 | 1009.2 |
| 20260507171544 | 72 | 214 | 6.1 | 11.3 | 0.00 | 0.47 | 0.26 | 78 | 1009.3 |
| 20260507170041 | 73 | 215 | 4.3 | 9.6 | 0.00 | 0.47 | 0.26 | 79 | 1009.5 |